sensor_id;sensor_type;location;lat;lon;timestamp;P1;durP1;ratioP1;P2;durP2;ratioP2
7205;SDS011;3644;53.480;10.004;2023-03-14T00:00:54;2.50;;;2.10;;
7205;SDS011;3644;53.480;10.004;2023-03-14T00:03:20;6.67;;;2.80;;
7205;SDS011;3644;53.480;10.004;2023-03-14T00:05:45;3.73;;;2.60;;
7205;SDS011;3644;53.480;10.004;2023-03-14T00:08:11;4.00;;;2.70;;
7205;SDS011;3644;53.480;10.004;2023-03-14T00:10:37;6.10;;;2.70;;
7205;SDS011;3644;53.480;10.004;2023-03-14T00:13:03;9.80;;;2.43;;
7205;SDS011;3644;53.480;10.004;2023-03-14T00:15:29;9.37;;;2.90;;
7205;SDS011;3644;53.480;10.004;2023-03-14T00:17:54;7.43;;;3.33;;
7205;SDS011;3644;53.480;10.004;2023-03-14T00:20:20;13.33;;;3.13;;
7205;SDS011;3644;53.480;10.004;2023-03-14T00:22:45;3.30;;;2.97;;
7205;SDS011;3644;53.480;10.004;2023-03-14T00:25:11;7.27;;;2.87;;
7205;SDS011;3644;53.480;10.004;2023-03-14T00:27:37;5.00;;;2.30;;
7205;SDS011;3644;53.480;10.004;2023-03-14T00:30:03;8.60;;;2.80;;
7205;SDS011;3644;53.480;10.004;2023-03-14T00:32:30;11.73;;;3.00;;
7205;SDS011;3644;53.480;10.004;2023-03-14T00:34:55;2.60;;;2.40;;
7205;SDS011;3644;53.480;10.004;2023-03-14T00:37:21;5.07;;;2.53;;
7205;SDS011;3644;53.480;10.004;2023-03-14T00:39:46;7.43;;;2.73;;
7205;SDS011;3644;53.480;10.004;2023-03-14T00:42:12;5.93;;;2.50;;
7205;SDS011;3644;53.480;10.004;2023-03-14T00:44:38;7.73;;;4.40;;
7205;SDS011;3644;53.480;10.004;2023-03-14T00:47:04;9.30;;;3.20;;
7205;SDS011;3644;53.480;10.004;2023-03-14T00:49:29;4.50;;;2.97;;
7205;SDS011;3644;53.480;10.004;2023-03-14T00:51:55;5.73;;;2.70;;
7205;SDS011;3644;53.480;10.004;2023-03-14T00:54:20;7.23;;;2.60;;
7205;SDS011;3644;53.480;10.004;2023-03-14T00:56:46;8.57;;;3.47;;
7205;SDS011;3644;53.480;10.004;2023-03-14T00:59:12;6.90;;;3.00;;
7205;SDS011;3644;53.480;10.004;2023-03-14T01:01:38;6.50;;;2.40;;
7205;SDS011;3644;53.480;10.004;2023-03-14T01:04:04;4.07;;;2.83;;
7205;SDS011;3644;53.480;10.004;2023-03-14T01:06:29;2.80;;;2.13;;
7205;SDS011;3644;53.480;10.004;2023-03-14T01:08:56;6.23;;;3.27;;
7205;SDS011;3644;53.480;10.004;2023-03-14T01:11:23;4.80;;;3.10;;
7205;SDS011;3644;53.480;10.004;2023-03-14T01:13:50;7.10;;;3.27;;
7205;SDS011;3644;53.480;10.004;2023-03-14T01:16:17;4.93;;;2.80;;
7205;SDS011;3644;53.480;10.004;2023-03-14T01:18:44;5.73;;;3.40;;
7205;SDS011;3644;53.480;10.004;2023-03-14T01:21:11;6.43;;;2.63;;
7205;SDS011;3644;53.480;10.004;2023-03-14T01:23:39;4.63;;;2.70;;
7205;SDS011;3644;53.480;10.004;2023-03-14T01:26:08;10.90;;;3.07;;
7205;SDS011;3644;53.480;10.004;2023-03-14T01:28:35;4.40;;;2.50;;
7205;SDS011;3644;53.480;10.004;2023-03-14T01:31:04;6.60;;;2.60;;
7205;SDS011;3644;53.480;10.004;2023-03-14T01:33:31;6.27;;;3.20;;
7205;SDS011;3644;53.480;10.004;2023-03-14T01:35:57;5.57;;;3.13;;
7205;SDS011;3644;53.480;10.004;2023-03-14T01:38:22;10.83;;;3.30;;
7205;SDS011;3644;53.480;10.004;2023-03-14T01:40:48;12.30;;;3.23;;
7205;SDS011;3644;53.480;10.004;2023-03-14T01:43:17;7.60;;;3.27;;
7205;SDS011;3644;53.480;10.004;2023-03-14T01:46:06;3.47;;;3.17;;
7205;SDS011;3644;53.480;10.004;2023-03-14T01:48:51;5.73;;;2.73;;
7205;SDS011;3644;53.480;10.004;2023-03-14T01:51:41;4.60;;;2.90;;
7205;SDS011;3644;53.480;10.004;2023-03-14T01:54:09;6.33;;;3.00;;
7205;SDS011;3644;53.480;10.004;2023-03-14T01:56:44;5.27;;;2.73;;
7205;SDS011;3644;53.480;10.004;2023-03-14T01:59:13;6.33;;;3.00;;
7205;SDS011;3644;53.480;10.004;2023-03-14T02:01:39;6.30;;;3.03;;
7205;SDS011;3644;53.480;10.004;2023-03-14T02:04:07;5.90;;;2.70;;
7205;SDS011;3644;53.480;10.004;2023-03-14T02:09:16;13.73;;;3.27;;
7205;SDS011;3644;53.480;10.004;2023-03-14T02:11:43;8.67;;;3.33;;
7205;SDS011;3644;53.480;10.004;2023-03-14T02:14:09;10.83;;;3.60;;
7205;SDS011;3644;53.480;10.004;2023-03-14T02:16:44;14.73;;;3.80;;
7205;SDS011;3644;53.480;10.004;2023-03-14T02:19:10;6.20;;;2.70;;
7205;SDS011;3644;53.480;10.004;2023-03-14T02:24:21;6.23;;;3.20;;
7205;SDS011;3644;53.480;10.004;2023-03-14T02:27:09;8.37;;;3.27;;
7205;SDS011;3644;53.480;10.004;2023-03-14T02:32:17;7.73;;;3.47;;
7205;SDS011;3644;53.480;10.004;2023-03-14T02:34:45;2.80;;;2.50;;
7205;SDS011;3644;53.480;10.004;2023-03-14T02:37:14;12.17;;;3.40;;
7205;SDS011;3644;53.480;10.004;2023-03-14T02:39:43;4.93;;;3.00;;
7205;SDS011;3644;53.480;10.004;2023-03-14T02:42:10;4.73;;;2.87;;
7205;SDS011;3644;53.480;10.004;2023-03-14T02:44:47;7.13;;;3.00;;
7205;SDS011;3644;53.480;10.004;2023-03-14T02:47:15;11.00;;;3.50;;
7205;SDS011;3644;53.480;10.004;2023-03-14T02:49:41;10.23;;;3.27;;
7205;SDS011;3644;53.480;10.004;2023-03-14T02:52:07;14.70;;;3.53;;
7205;SDS011;3644;53.480;10.004;2023-03-14T02:54:32;8.63;;;3.03;;
7205;SDS011;3644;53.480;10.004;2023-03-14T02:56:57;11.60;;;3.27;;
7205;SDS011;3644;53.480;10.004;2023-03-14T02:59:23;7.10;;;3.13;;
7205;SDS011;3644;53.480;10.004;2023-03-14T03:01:48;7.63;;;3.60;;
7205;SDS011;3644;53.480;10.004;2023-03-14T03:04:14;9.40;;;3.90;;
7205;SDS011;3644;53.480;10.004;2023-03-14T03:06:39;6.33;;;3.77;;
7205;SDS011;3644;53.480;10.004;2023-03-14T03:09:05;10.33;;;4.10;;
7205;SDS011;3644;53.480;10.004;2023-03-14T03:11:30;7.30;;;3.37;;
7205;SDS011;3644;53.480;10.004;2023-03-14T03:13:56;9.60;;;2.73;;
7205;SDS011;3644;53.480;10.004;2023-03-14T03:16:22;7.10;;;3.20;;
7205;SDS011;3644;53.480;10.004;2023-03-14T03:18:47;6.90;;;2.97;;
7205;SDS011;3644;53.480;10.004;2023-03-14T03:21:13;4.83;;;2.73;;
7205;SDS011;3644;53.480;10.004;2023-03-14T03:23:39;13.43;;;3.40;;
7205;SDS011;3644;53.480;10.004;2023-03-14T03:26:04;6.30;;;3.17;;
7205;SDS011;3644;53.480;10.004;2023-03-14T03:28:30;6.97;;;3.17;;
7205;SDS011;3644;53.480;10.004;2023-03-14T03:30:56;6.20;;;3.50;;
7205;SDS011;3644;53.480;10.004;2023-03-14T03:33:21;4.83;;;2.50;;
7205;SDS011;3644;53.480;10.004;2023-03-14T03:35:49;5.83;;;3.07;;
7205;SDS011;3644;53.480;10.004;2023-03-14T03:38:15;8.90;;;3.40;;
7205;SDS011;3644;53.480;10.004;2023-03-14T03:40:41;7.03;;;2.87;;
7205;SDS011;3644;53.480;10.004;2023-03-14T03:43:06;9.53;;;2.80;;
7205;SDS011;3644;53.480;10.004;2023-03-14T03:45:32;11.37;;;4.23;;
7205;SDS011;3644;53.480;10.004;2023-03-14T03:47:58;12.20;;;3.63;;
7205;SDS011;3644;53.480;10.004;2023-03-14T03:50:23;5.80;;;3.37;;
7205;SDS011;3644;53.480;10.004;2023-03-14T03:52:49;7.27;;;3.93;;
7205;SDS011;3644;53.480;10.004;2023-03-14T03:55:14;4.70;;;2.80;;
7205;SDS011;3644;53.480;10.004;2023-03-14T03:57:40;7.80;;;3.40;;
7205;SDS011;3644;53.480;10.004;2023-03-14T04:00:05;8.17;;;3.07;;
7205;SDS011;3644;53.480;10.004;2023-03-14T04:02:34;12.93;;;3.20;;
7205;SDS011;3644;53.480;10.004;2023-03-14T04:04:59;7.37;;;2.70;;
7205;SDS011;3644;53.480;10.004;2023-03-14T04:07:24;4.10;;;2.83;;
7205;SDS011;3644;53.480;10.004;2023-03-14T04:09:50;4.63;;;2.77;;
7205;SDS011;3644;53.480;10.004;2023-03-14T04:12:15;3.33;;;2.83;;
7205;SDS011;3644;53.480;10.004;2023-03-14T04:14:41;7.87;;;3.10;;
7205;SDS011;3644;53.480;10.004;2023-03-14T04:17:07;5.93;;;3.43;;
7205;SDS011;3644;53.480;10.004;2023-03-14T04:19:32;7.43;;;3.20;;
7205;SDS011;3644;53.480;10.004;2023-03-14T04:21:58;8.30;;;2.80;;
7205;SDS011;3644;53.480;10.004;2023-03-14T04:24:23;6.50;;;3.30;;
7205;SDS011;3644;53.480;10.004;2023-03-14T04:26:49;12.27;;;3.40;;
7205;SDS011;3644;53.480;10.004;2023-03-14T04:29:15;5.63;;;3.20;;
7205;SDS011;3644;53.480;10.004;2023-03-14T04:31:40;3.77;;;2.77;;
7205;SDS011;3644;53.480;10.004;2023-03-14T04:34:06;7.77;;;3.70;;
7205;SDS011;3644;53.480;10.004;2023-03-14T04:36:31;9.90;;;3.30;;
7205;SDS011;3644;53.480;10.004;2023-03-14T04:38:57;5.10;;;3.23;;
7205;SDS011;3644;53.480;10.004;2023-03-14T04:41:22;11.53;;;3.30;;
7205;SDS011;3644;53.480;10.004;2023-03-14T04:43:48;6.90;;;3.27;;
7205;SDS011;3644;53.480;10.004;2023-03-14T04:46:13;5.90;;;3.33;;
7205;SDS011;3644;53.480;10.004;2023-03-14T04:48:39;8.23;;;3.23;;
7205;SDS011;3644;53.480;10.004;2023-03-14T04:51:04;7.37;;;3.30;;
7205;SDS011;3644;53.480;10.004;2023-03-14T04:53:30;3.60;;;2.83;;
7205;SDS011;3644;53.480;10.004;2023-03-14T04:55:56;12.57;;;3.20;;
7205;SDS011;3644;53.480;10.004;2023-03-14T04:58:21;9.17;;;3.87;;
7205;SDS011;3644;53.480;10.004;2023-03-14T05:00:48;6.75;;;2.92;;
7205;SDS011;3644;53.480;10.004;2023-03-14T05:03:14;5.40;;;2.87;;
7205;SDS011;3644;53.480;10.004;2023-03-14T05:05:40;3.83;;;2.50;;
7205;SDS011;3644;53.480;10.004;2023-03-14T05:08:06;7.33;;;3.40;;
7205;SDS011;3644;53.480;10.004;2023-03-14T05:10:32;6.17;;;3.43;;
7205;SDS011;3644;53.480;10.004;2023-03-14T05:12:57;5.20;;;3.33;;
7205;SDS011;3644;53.480;10.004;2023-03-14T05:15:23;5.03;;;2.70;;
7205;SDS011;3644;53.480;10.004;2023-03-14T05:17:48;9.13;;;3.20;;
7205;SDS011;3644;53.480;10.004;2023-03-14T05:20:14;6.23;;;2.90;;
7205;SDS011;3644;53.480;10.004;2023-03-14T05:22:40;5.13;;;2.80;;
7205;SDS011;3644;53.480;10.004;2023-03-14T05:25:06;5.20;;;2.83;;
7205;SDS011;3644;53.480;10.004;2023-03-14T05:27:32;10.23;;;3.20;;
7205;SDS011;3644;53.480;10.004;2023-03-14T05:29:58;9.20;;;3.10;;
7205;SDS011;3644;53.480;10.004;2023-03-14T05:32:24;7.80;;;3.10;;
7205;SDS011;3644;53.480;10.004;2023-03-14T05:34:49;7.50;;;3.53;;
7205;SDS011;3644;53.480;10.004;2023-03-14T05:37:15;3.50;;;2.97;;
7205;SDS011;3644;53.480;10.004;2023-03-14T05:39:40;4.90;;;3.07;;
7205;SDS011;3644;53.480;10.004;2023-03-14T05:42:05;7.07;;;2.30;;
7205;SDS011;3644;53.480;10.004;2023-03-14T05:44:31;8.33;;;3.67;;
7205;SDS011;3644;53.480;10.004;2023-03-14T05:46:56;7.47;;;2.73;;
7205;SDS011;3644;53.480;10.004;2023-03-14T05:49:22;8.73;;;2.70;;
7205;SDS011;3644;53.480;10.004;2023-03-14T05:51:48;7.00;;;3.00;;
7205;SDS011;3644;53.480;10.004;2023-03-14T05:54:13;8.40;;;4.00;;
7205;SDS011;3644;53.480;10.004;2023-03-14T05:56:39;3.40;;;2.30;;
7205;SDS011;3644;53.480;10.004;2023-03-14T05:59:04;6.53;;;3.20;;
7205;SDS011;3644;53.480;10.004;2023-03-14T06:01:31;9.10;;;2.93;;
7205;SDS011;3644;53.480;10.004;2023-03-14T06:03:56;12.70;;;3.53;;
7205;SDS011;3644;53.480;10.004;2023-03-14T06:06:22;3.90;;;2.90;;
7205;SDS011;3644;53.480;10.004;2023-03-14T06:08:47;10.10;;;2.63;;
7205;SDS011;3644;53.480;10.004;2023-03-14T06:11:13;3.63;;;2.33;;
7205;SDS011;3644;53.480;10.004;2023-03-14T06:13:38;3.53;;;3.17;;
7205;SDS011;3644;53.480;10.004;2023-03-14T06:16:04;6.80;;;2.97;;
7205;SDS011;3644;53.480;10.004;2023-03-14T06:18:30;4.43;;;2.30;;
7205;SDS011;3644;53.480;10.004;2023-03-14T06:20:56;7.40;;;3.10;;
7205;SDS011;3644;53.480;10.004;2023-03-14T06:23:22;4.00;;;2.53;;
7205;SDS011;3644;53.480;10.004;2023-03-14T06:25:48;6.87;;;2.83;;
7205;SDS011;3644;53.480;10.004;2023-03-14T06:28:14;11.33;;;4.57;;
7205;SDS011;3644;53.480;10.004;2023-03-14T06:30:39;5.30;;;3.00;;
7205;SDS011;3644;53.480;10.004;2023-03-14T06:33:05;4.70;;;2.57;;
7205;SDS011;3644;53.480;10.004;2023-03-14T06:35:30;4.90;;;2.90;;
7205;SDS011;3644;53.480;10.004;2023-03-14T06:37:56;3.13;;;2.20;;
7205;SDS011;3644;53.480;10.004;2023-03-14T06:40:21;7.17;;;3.03;;
7205;SDS011;3644;53.480;10.004;2023-03-14T06:42:47;4.10;;;1.87;;
7205;SDS011;3644;53.480;10.004;2023-03-14T06:45:13;3.00;;;2.00;;
7205;SDS011;3644;53.480;10.004;2023-03-14T06:47:39;11.50;;;2.67;;
7205;SDS011;3644;53.480;10.004;2023-03-14T06:50:05;4.93;;;1.63;;
7205;SDS011;3644;53.480;10.004;2023-03-14T06:52:32;5.60;;;2.20;;
7205;SDS011;3644;53.480;10.004;2023-03-14T06:54:58;5.20;;;2.90;;
7205;SDS011;3644;53.480;10.004;2023-03-14T06:57:23;8.50;;;2.50;;
7205;SDS011;3644;53.480;10.004;2023-03-14T06:59:49;4.70;;;2.33;;
7205;SDS011;3644;53.480;10.004;2023-03-14T07:02:14;4.50;;;2.43;;
7205;SDS011;3644;53.480;10.004;2023-03-14T07:04:40;4.80;;;2.47;;
7205;SDS011;3644;53.480;10.004;2023-03-14T07:07:05;4.17;;;2.17;;
7205;SDS011;3644;53.480;10.004;2023-03-14T07:09:31;5.07;;;2.63;;
7205;SDS011;3644;53.480;10.004;2023-03-14T07:11:58;5.90;;;2.40;;
7205;SDS011;3644;53.480;10.004;2023-03-14T07:14:24;4.87;;;2.30;;
7205;SDS011;3644;53.480;10.004;2023-03-14T07:16:49;3.20;;;2.10;;
7205;SDS011;3644;53.480;10.004;2023-03-14T07:19:15;5.60;;;2.10;;
7205;SDS011;3644;53.480;10.004;2023-03-14T07:21:40;3.33;;;1.97;;
7205;SDS011;3644;53.480;10.004;2023-03-14T07:24:06;4.33;;;2.20;;
7205;SDS011;3644;53.480;10.004;2023-03-14T07:26:32;7.00;;;2.67;;
7205;SDS011;3644;53.480;10.004;2023-03-14T07:28:57;2.43;;;2.03;;
7205;SDS011;3644;53.480;10.004;2023-03-14T07:31:23;3.07;;;2.10;;
7205;SDS011;3644;53.480;10.004;2023-03-14T07:33:49;3.43;;;1.70;;
7205;SDS011;3644;53.480;10.004;2023-03-14T07:36:14;5.13;;;2.43;;
7205;SDS011;3644;53.480;10.004;2023-03-14T07:38:40;7.13;;;2.40;;
7205;SDS011;3644;53.480;10.004;2023-03-14T07:41:06;3.37;;;2.03;;
7205;SDS011;3644;53.480;10.004;2023-03-14T07:43:32;3.90;;;1.50;;
7205;SDS011;3644;53.480;10.004;2023-03-14T07:45:58;5.60;;;2.83;;
7205;SDS011;3644;53.480;10.004;2023-03-14T07:48:23;8.60;;;2.40;;
7205;SDS011;3644;53.480;10.004;2023-03-14T07:50:50;2.20;;;1.43;;
7205;SDS011;3644;53.480;10.004;2023-03-14T07:53:17;2.47;;;2.07;;
7205;SDS011;3644;53.480;10.004;2023-03-14T07:55:43;3.07;;;1.50;;
7205;SDS011;3644;53.480;10.004;2023-03-14T07:58:09;4.83;;;1.80;;
7205;SDS011;3644;53.480;10.004;2023-03-14T08:00:34;3.87;;;1.63;;
7205;SDS011;3644;53.480;10.004;2023-03-14T08:03:00;2.13;;;1.80;;
7205;SDS011;3644;53.480;10.004;2023-03-14T08:05:25;5.90;;;2.53;;
7205;SDS011;3644;53.480;10.004;2023-03-14T08:07:51;5.10;;;2.20;;
7205;SDS011;3644;53.480;10.004;2023-03-14T08:10:17;3.43;;;2.10;;
7205;SDS011;3644;53.480;10.004;2023-03-14T08:12:49;6.37;;;2.40;;
7205;SDS011;3644;53.480;10.004;2023-03-14T08:15:15;3.30;;;2.37;;
7205;SDS011;3644;53.480;10.004;2023-03-14T08:17:41;3.57;;;1.90;;
7205;SDS011;3644;53.480;10.004;2023-03-14T08:20:06;5.73;;;2.40;;
7205;SDS011;3644;53.480;10.004;2023-03-14T08:22:34;7.60;;;2.47;;
7205;SDS011;3644;53.480;10.004;2023-03-14T08:25:00;8.90;;;2.30;;
7205;SDS011;3644;53.480;10.004;2023-03-14T08:27:25;4.43;;;2.30;;
7205;SDS011;3644;53.480;10.004;2023-03-14T08:29:51;2.63;;;1.93;;
7205;SDS011;3644;53.480;10.004;2023-03-14T08:32:16;9.13;;;2.83;;
7205;SDS011;3644;53.480;10.004;2023-03-14T08:34:42;3.90;;;2.77;;
7205;SDS011;3644;53.480;10.004;2023-03-14T08:37:07;7.17;;;2.77;;
7205;SDS011;3644;53.480;10.004;2023-03-14T08:39:33;5.33;;;2.53;;
7205;SDS011;3644;53.480;10.004;2023-03-14T08:41:58;9.67;;;3.13;;
7205;SDS011;3644;53.480;10.004;2023-03-14T08:44:24;11.53;;;3.00;;
7205;SDS011;3644;53.480;10.004;2023-03-14T08:46:49;11.83;;;2.90;;
7205;SDS011;3644;53.480;10.004;2023-03-14T08:49:15;13.63;;;3.37;;
7205;SDS011;3644;53.480;10.004;2023-03-14T08:51:40;11.63;;;2.97;;
7205;SDS011;3644;53.480;10.004;2023-03-14T08:54:06;10.20;;;3.90;;
7205;SDS011;3644;53.480;10.004;2023-03-14T08:56:34;5.60;;;3.00;;
7205;SDS011;3644;53.480;10.004;2023-03-14T08:59:02;7.67;;;3.23;;
7205;SDS011;3644;53.480;10.004;2023-03-14T09:01:28;6.53;;;3.43;;
7205;SDS011;3644;53.480;10.004;2023-03-14T09:03:53;6.70;;;3.67;;
7205;SDS011;3644;53.480;10.004;2023-03-14T09:06:19;5.93;;;3.23;;
7205;SDS011;3644;53.480;10.004;2023-03-14T09:08:45;8.73;;;3.30;;
7205;SDS011;3644;53.480;10.004;2023-03-14T09:11:10;4.37;;;3.20;;
7205;SDS011;3644;53.480;10.004;2023-03-14T09:13:36;6.53;;;3.37;;
7205;SDS011;3644;53.480;10.004;2023-03-14T09:16:02;8.43;;;3.77;;
7205;SDS011;3644;53.480;10.004;2023-03-14T09:18:28;7.90;;;4.10;;
7205;SDS011;3644;53.480;10.004;2023-03-14T09:20:54;4.60;;;3.97;;
7205;SDS011;3644;53.480;10.004;2023-03-14T09:23:20;6.63;;;3.83;;
7205;SDS011;3644;53.480;10.004;2023-03-14T09:25:46;7.80;;;4.30;;
7205;SDS011;3644;53.480;10.004;2023-03-14T09:28:11;5.90;;;3.77;;
7205;SDS011;3644;53.480;10.004;2023-03-14T09:30:37;7.23;;;3.47;;
7205;SDS011;3644;53.480;10.004;2023-03-14T09:33:03;7.47;;;3.80;;
7205;SDS011;3644;53.480;10.004;2023-03-14T09:35:29;5.47;;;3.40;;
7205;SDS011;3644;53.480;10.004;2023-03-14T09:37:54;8.40;;;3.50;;
7205;SDS011;3644;53.480;10.004;2023-03-14T09:40:21;12.87;;;3.97;;
7205;SDS011;3644;53.480;10.004;2023-03-14T09:42:50;4.50;;;3.30;;
7205;SDS011;3644;53.480;10.004;2023-03-14T09:45:27;7.87;;;3.53;;
7205;SDS011;3644;53.480;10.004;2023-03-14T09:47:56;10.33;;;4.00;;
7205;SDS011;3644;53.480;10.004;2023-03-14T09:50:23;4.93;;;4.43;;
7205;SDS011;3644;53.480;10.004;2023-03-14T09:52:51;9.30;;;4.37;;
7205;SDS011;3644;53.480;10.004;2023-03-14T09:55:21;6.70;;;4.10;;
7205;SDS011;3644;53.480;10.004;2023-03-14T09:57:54;6.43;;;3.30;;
7205;SDS011;3644;53.480;10.004;2023-03-14T10:00:27;7.83;;;3.30;;
7205;SDS011;3644;53.480;10.004;2023-03-14T10:03:18;8.23;;;3.00;;
7205;SDS011;3644;53.480;10.004;2023-03-14T10:05:50;3.30;;;1.10;;
7205;SDS011;3644;53.480;10.004;2023-03-14T10:08:16;1.63;;;1.20;;
7205;SDS011;3644;53.480;10.004;2023-03-14T10:10:42;3.90;;;1.23;;
7205;SDS011;3644;53.480;10.004;2023-03-14T10:13:16;3.53;;;1.47;;
7205;SDS011;3644;53.480;10.004;2023-03-14T10:15:47;1.70;;;1.57;;
7205;SDS011;3644;53.480;10.004;2023-03-14T10:18:16;1.77;;;1.50;;
7205;SDS011;3644;53.480;10.004;2023-03-14T10:20:42;2.70;;;2.13;;
7205;SDS011;3644;53.480;10.004;2023-03-14T10:25:40;3.30;;;1.83;;
7205;SDS011;3644;53.480;10.004;2023-03-14T10:30:57;2.20;;;2.00;;
7205;SDS011;3644;53.480;10.004;2023-03-14T10:33:24;1.80;;;1.47;;
7205;SDS011;3644;53.480;10.004;2023-03-14T10:36:15;1.40;;;1.33;;
7205;SDS011;3644;53.480;10.004;2023-03-14T10:38:48;1.60;;;1.50;;
7205;SDS011;3644;53.480;10.004;2023-03-14T10:41:15;3.30;;;1.30;;
7205;SDS011;3644;53.480;10.004;2023-03-14T10:43:45;2.00;;;1.43;;
7205;SDS011;3644;53.480;10.004;2023-03-14T10:46:16;4.33;;;1.77;;
7205;SDS011;3644;53.480;10.004;2023-03-14T10:48:43;1.37;;;1.30;;
7205;SDS011;3644;53.480;10.004;2023-03-14T10:54:01;2.40;;;1.63;;
7205;SDS011;3644;53.480;10.004;2023-03-14T10:56:55;1.20;;;0.97;;
7205;SDS011;3644;53.480;10.004;2023-03-14T10:59:22;2.20;;;1.27;;
7205;SDS011;3644;53.480;10.004;2023-03-14T11:01:51;1.10;;;0.90;;
7205;SDS011;3644;53.480;10.004;2023-03-14T11:04:41;5.03;;;1.20;;
7205;SDS011;3644;53.480;10.004;2023-03-14T11:20:51;4.17;;;0.80;;
7205;SDS011;3644;53.480;10.004;2023-03-14T11:23:20;0.90;;;0.90;;
7205;SDS011;3644;53.480;10.004;2023-03-14T11:26:01;1.13;;;1.00;;
7205;SDS011;3644;53.480;10.004;2023-03-14T11:28:47;0.90;;;0.90;;
7205;SDS011;3644;53.480;10.004;2023-03-14T11:31:26;2.67;;;1.20;;
7205;SDS011;3644;53.480;10.004;2023-03-14T11:36:27;5.73;;;1.50;;
7205;SDS011;3644;53.480;10.004;2023-03-14T11:39:11;1.60;;;0.90;;
7205;SDS011;3644;53.480;10.004;2023-03-14T11:41:41;1.80;;;1.60;;
7205;SDS011;3644;53.480;10.004;2023-03-14T11:44:11;1.47;;;1.27;;
7205;SDS011;3644;53.480;10.004;2023-03-14T11:46:46;2.40;;;1.40;;
7205;SDS011;3644;53.480;10.004;2023-03-14T11:49:27;4.00;;;1.87;;
7205;SDS011;3644;53.480;10.004;2023-03-14T11:51:59;1.53;;;1.30;;
7205;SDS011;3644;53.480;10.004;2023-03-14T11:54:44;1.30;;;1.20;;
7205;SDS011;3644;53.480;10.004;2023-03-14T11:57:16;6.47;;;1.60;;
7205;SDS011;3644;53.480;10.004;2023-03-14T11:59:55;4.03;;;1.30;;
7205;SDS011;3644;53.480;10.004;2023-03-14T12:02:26;1.33;;;1.23;;
7205;SDS011;3644;53.480;10.004;2023-03-14T12:08:01;1.57;;;1.27;;
7205;SDS011;3644;53.480;10.004;2023-03-14T12:10:53;6.20;;;1.60;;
7205;SDS011;3644;53.480;10.004;2023-03-14T12:13:23;2.30;;;1.60;;
7205;SDS011;3644;53.480;10.004;2023-03-14T12:15:58;4.83;;;2.27;;
7205;SDS011;3644;53.480;10.004;2023-03-14T12:20:54;4.13;;;1.70;;
7205;SDS011;3644;53.480;10.004;2023-03-14T12:23:26;2.13;;;1.40;;
7205;SDS011;3644;53.480;10.004;2023-03-14T12:26:06;8.60;;;2.43;;
7205;SDS011;3644;53.480;10.004;2023-03-14T12:28:32;5.27;;;2.07;;
7205;SDS011;3644;53.480;10.004;2023-03-14T12:31:02;9.17;;;2.47;;
7205;SDS011;3644;53.480;10.004;2023-03-14T12:41:53;6.23;;;1.90;;
7205;SDS011;3644;53.480;10.004;2023-03-14T12:46:58;14.07;;;2.30;;
7205;SDS011;3644;53.480;10.004;2023-03-14T12:49:31;7.97;;;2.70;;
7205;SDS011;3644;53.480;10.004;2023-03-14T12:52:00;7.10;;;2.70;;
7205;SDS011;3644;53.480;10.004;2023-03-14T12:54:35;3.70;;;1.90;;
7205;SDS011;3644;53.480;10.004;2023-03-14T12:57:28;12.63;;;2.70;;
7205;SDS011;3644;53.480;10.004;2023-03-14T13:00:18;4.87;;;2.13;;
7205;SDS011;3644;53.480;10.004;2023-03-14T13:02:44;9.23;;;1.83;;
7205;SDS011;3644;53.480;10.004;2023-03-14T13:05:18;8.77;;;2.63;;
7205;SDS011;3644;53.480;10.004;2023-03-14T13:15:35;6.63;;;2.17;;
7205;SDS011;3644;53.480;10.004;2023-03-14T13:18:17;12.83;;;2.60;;
7205;SDS011;3644;53.480;10.004;2023-03-14T13:20:54;17.37;;;2.70;;
7205;SDS011;3644;53.480;10.004;2023-03-14T13:25:51;11.47;;;3.30;;
7205;SDS011;3644;53.480;10.004;2023-03-14T13:28:17;18.10;;;2.87;;
7205;SDS011;3644;53.480;10.004;2023-03-14T13:30:47;11.00;;;3.60;;
7205;SDS011;3644;53.480;10.004;2023-03-14T13:33:17;10.13;;;2.33;;
7205;SDS011;3644;53.480;10.004;2023-03-14T13:35:48;28.67;;;3.03;;
7205;SDS011;3644;53.480;10.004;2023-03-14T13:38:21;6.53;;;1.97;;
7205;SDS011;3644;53.480;10.004;2023-03-14T13:40:49;19.33;;;4.10;;
7205;SDS011;3644;53.480;10.004;2023-03-14T13:43:17;36.50;;;7.43;;
7205;SDS011;3644;53.480;10.004;2023-03-14T13:46:00;12.37;;;2.47;;
7205;SDS011;3644;53.480;10.004;2023-03-14T13:48:28;8.70;;;1.90;;
7205;SDS011;3644;53.480;10.004;2023-03-14T13:50:58;10.67;;;2.40;;
7205;SDS011;3644;53.480;10.004;2023-03-14T13:53:27;10.63;;;2.50;;
7205;SDS011;3644;53.480;10.004;2023-03-14T13:55:52;4.70;;;1.63;;
7205;SDS011;3644;53.480;10.004;2023-03-14T13:58:22;22.73;;;2.63;;
7205;SDS011;3644;53.480;10.004;2023-03-14T14:00:57;7.80;;;2.10;;
7205;SDS011;3644;53.480;10.004;2023-03-14T14:03:26;7.93;;;2.37;;
7205;SDS011;3644;53.480;10.004;2023-03-14T14:05:54;13.70;;;2.80;;
7205;SDS011;3644;53.480;10.004;2023-03-14T14:08:21;6.47;;;2.20;;
7205;SDS011;3644;53.480;10.004;2023-03-14T14:10:47;10.33;;;2.47;;
7205;SDS011;3644;53.480;10.004;2023-03-14T14:13:15;10.60;;;2.40;;
7205;SDS011;3644;53.480;10.004;2023-03-14T14:15:45;13.63;;;2.10;;
7205;SDS011;3644;53.480;10.004;2023-03-14T14:18:14;21.47;;;2.93;;
7205;SDS011;3644;53.480;10.004;2023-03-14T14:20:43;9.60;;;2.53;;
7205;SDS011;3644;53.480;10.004;2023-03-14T14:25:50;8.23;;;2.03;;
7205;SDS011;3644;53.480;10.004;2023-03-14T14:28:21;14.27;;;2.67;;
7205;SDS011;3644;53.480;10.004;2023-03-14T14:30:59;11.83;;;1.87;;
7205;SDS011;3644;53.480;10.004;2023-03-14T14:33:45;13.37;;;2.30;;
7205;SDS011;3644;53.480;10.004;2023-03-14T14:36:19;11.67;;;2.17;;
7205;SDS011;3644;53.480;10.004;2023-03-14T14:38:48;8.37;;;3.10;;
7205;SDS011;3644;53.480;10.004;2023-03-14T14:41:31;6.30;;;2.67;;
7205;SDS011;3644;53.480;10.004;2023-03-14T14:43:59;11.53;;;2.53;;
7205;SDS011;3644;53.480;10.004;2023-03-14T14:46:26;4.27;;;2.10;;
7205;SDS011;3644;53.480;10.004;2023-03-14T14:48:55;9.10;;;1.93;;
7205;SDS011;3644;53.480;10.004;2023-03-14T14:51:26;10.53;;;3.23;;
7205;SDS011;3644;53.480;10.004;2023-03-14T14:54:01;6.83;;;2.30;;
7205;SDS011;3644;53.480;10.004;2023-03-14T14:56:30;18.17;;;2.43;;
7205;SDS011;3644;53.480;10.004;2023-03-14T14:59:00;6.17;;;1.70;;
7205;SDS011;3644;53.480;10.004;2023-03-14T15:01:32;3.47;;;2.70;;
7205;SDS011;3644;53.480;10.004;2023-03-14T15:04:10;11.37;;;2.30;;
7205;SDS011;3644;53.480;10.004;2023-03-14T15:06:38;19.67;;;2.40;;
7205;SDS011;3644;53.480;10.004;2023-03-14T15:09:08;15.27;;;2.60;;
7205;SDS011;3644;53.480;10.004;2023-03-14T15:11:35;6.67;;;1.87;;
7205;SDS011;3644;53.480;10.004;2023-03-14T15:14:00;6.27;;;1.70;;
7205;SDS011;3644;53.480;10.004;2023-03-14T15:16:29;3.07;;;1.90;;
7205;SDS011;3644;53.480;10.004;2023-03-14T15:18:57;15.83;;;2.67;;
7205;SDS011;3644;53.480;10.004;2023-03-14T15:21:25;7.33;;;2.47;;
7205;SDS011;3644;53.480;10.004;2023-03-14T15:23:52;12.00;;;2.20;;
7205;SDS011;3644;53.480;10.004;2023-03-14T15:26:19;8.30;;;2.27;;
7205;SDS011;3644;53.480;10.004;2023-03-14T15:28:47;11.23;;;2.70;;
7205;SDS011;3644;53.480;10.004;2023-03-14T15:31:13;3.33;;;1.87;;
7205;SDS011;3644;53.480;10.004;2023-03-14T15:33:40;11.17;;;2.70;;
7205;SDS011;3644;53.480;10.004;2023-03-14T15:36:14;12.57;;;2.13;;
7205;SDS011;3644;53.480;10.004;2023-03-14T15:38:44;18.93;;;3.57;;
7205;SDS011;3644;53.480;10.004;2023-03-14T15:41:09;2.20;;;1.90;;
7205;SDS011;3644;53.480;10.004;2023-03-14T15:43:35;13.80;;;2.37;;
7205;SDS011;3644;53.480;10.004;2023-03-14T15:46:00;33.30;;;2.90;;
7205;SDS011;3644;53.480;10.004;2023-03-14T15:48:26;6.83;;;2.40;;
7205;SDS011;3644;53.480;10.004;2023-03-14T15:50:51;6.27;;;1.93;;
7205;SDS011;3644;53.480;10.004;2023-03-14T15:53:17;7.30;;;2.33;;
7205;SDS011;3644;53.480;10.004;2023-03-14T15:55:42;7.60;;;3.10;;
7205;SDS011;3644;53.480;10.004;2023-03-14T15:58:15;8.67;;;2.80;;
7205;SDS011;3644;53.480;10.004;2023-03-14T16:00:42;3.53;;;1.80;;
7205;SDS011;3644;53.480;10.004;2023-03-14T16:03:07;4.80;;;2.53;;
7205;SDS011;3644;53.480;10.004;2023-03-14T16:05:33;23.30;;;3.40;;